sensor_id;sensor_type;location;lat;lon;timestamp;pressure;altitude;pressure_sealevel;temperature;humidity
77590;BME280;66746;51.328;12.332;2023-04-24T00:02:22;99110.75;;;12.92;80.84
77590;BME280;66746;51.328;12.332;2023-04-24T00:04:50;99115.66;;;12.87;81.38
77590;BME280;66746;51.328;12.332;2023-04-24T00:07:17;99118.38;;;12.87;81.95
77590;BME280;66746;51.328;12.332;2023-04-24T00:09:43;99117.72;;;12.84;81.69
77590;BME280;66746;51.328;12.332;2023-04-24T00:12:10;99119.53;;;12.83;82.39
77590;BME280;66746;51.328;12.332;2023-04-24T00:14:37;99115.16;;;12.81;82.01
77590;BME280;66746;51.328;12.332;2023-04-24T00:17:03;99115.16;;;12.81;82.91
77590;BME280;66746;51.328;12.332;2023-04-24T00:19:30;99120.63;;;12.81;83.54
77590;BME280;66746;51.328;12.332;2023-04-24T00:21:58;99121.91;;;12.75;83.91
77590;BME280;66746;51.328;12.332;2023-04-24T00:24:25;99118.22;;;12.76;84.00
77590;BME280;66746;51.328;12.332;2023-04-24T00:26:52;99113.97;;;12.72;83.61
77590;BME280;66746;51.328;12.332;2023-04-24T00:29:18;99109.38;;;12.73;83.61
77590;BME280;66746;51.328;12.332;2023-04-24T00:31:45;99112.31;;;12.70;83.36
77590;BME280;66746;51.328;12.332;2023-04-24T00:34:13;99116.31;;;12.64;84.15
77590;BME280;66746;51.328;12.332;2023-04-24T00:36:39;99116.81;;;12.57;84.06
77590;BME280;66746;51.328;12.332;2023-04-24T00:39:07;99108.94;;;12.52;83.97
77590;BME280;66746;51.328;12.332;2023-04-24T00:41:33;99107.41;;;12.48;84.36
77590;BME280;66746;51.328;12.332;2023-04-24T00:44:00;99120.44;;;12.43;84.87
77590;BME280;66746;51.328;12.332;2023-04-24T00:46:27;99117.13;;;12.38;84.91
77590;BME280;66746;51.328;12.332;2023-04-24T00:48:53;99115.38;;;12.37;84.85
77590;BME280;66746;51.328;12.332;2023-04-24T00:51:21;99126.44;;;12.34;84.48
77590;BME280;66746;51.328;12.332;2023-04-24T00:53:47;99132.09;;;12.31;84.88
77590;BME280;66746;51.328;12.332;2023-04-24T00:56:15;99111.69;;;12.24;84.96
77590;BME280;66746;51.328;12.332;2023-04-24T00:58:42;99119.84;;;12.24;85.05
77590;BME280;66746;51.328;12.332;2023-04-24T01:01:09;99116.34;;;12.22;84.91
77590;BME280;66746;51.328;12.332;2023-04-24T01:03:36;99124.72;;;12.19;84.73
77590;BME280;66746;51.328;12.332;2023-04-24T01:06:05;99124.91;;;12.16;85.15
77590;BME280;66746;51.328;12.332;2023-04-24T01:08:32;99129.38;;;12.17;84.49
77590;BME280;66746;51.328;12.332;2023-04-24T01:11:03;99120.66;;;12.12;84.65
77590;BME280;66746;51.328;12.332;2023-04-24T01:13:31;99117.56;;;12.04;84.60
77590;BME280;66746;51.328;12.332;2023-04-24T01:15:58;99118.78;;;11.98;84.05
77590;BME280;66746;51.328;12.332;2023-04-24T01:18:26;99108.22;;;11.94;84.25
77590;BME280;66746;51.328;12.332;2023-04-24T01:20:54;99114.44;;;11.96;83.35
77590;BME280;66746;51.328;12.332;2023-04-24T01:23:24;99108.22;;;11.94;82.99
77590;BME280;66746;51.328;12.332;2023-04-24T01:25:51;99103.75;;;11.93;83.14
77590;BME280;66746;51.328;12.332;2023-04-24T01:28:18;99113.84;;;11.91;83.03
77590;BME280;66746;51.328;12.332;2023-04-24T01:30:45;99123.94;;;11.89;82.80
77590;BME280;66746;51.328;12.332;2023-04-24T01:33:11;99122.09;;;11.89;82.76
77590;BME280;66746;51.328;12.332;2023-04-24T01:35:38;99118.31;;;11.92;81.91
77590;BME280;66746;51.328;12.332;2023-04-24T01:38:06;99118.50;;;11.89;82.53
77590;BME280;66746;51.328;12.332;2023-04-24T01:40:33;99114.72;;;11.91;82.46
77590;BME280;66746;51.328;12.332;2023-04-24T01:43:00;99116.94;;;11.85;82.56
77590;BME280;66746;51.328;12.332;2023-04-24T01:45:29;99126.25;;;11.81;82.79
77590;BME280;66746;51.328;12.332;2023-04-24T01:47:56;99126.66;;;11.75;82.31
77590;BME280;66746;51.328;12.332;2023-04-24T01:50:23;99117.91;;;11.70;83.28
77590;BME280;66746;51.328;12.332;2023-04-24T01:52:49;99121.78;;;11.66;82.97
77590;BME280;66746;51.328;12.332;2023-04-24T01:55:19;99116.50;;;11.63;83.78
77590;BME280;66746;51.328;12.332;2023-04-24T01:57:46;99120.81;;;11.67;83.73
77590;BME280;66746;51.328;12.332;2023-04-24T02:00:13;99123.66;;;11.64;83.66
77590;BME280;66746;51.328;12.332;2023-04-24T02:02:40;99125.59;;;11.62;83.40
77590;BME280;66746;51.328;12.332;2023-04-24T02:05:08;99123.19;;;11.57;83.33
77590;BME280;66746;51.328;12.332;2023-04-24T02:07:35;99120.56;;;11.55;84.02
77590;BME280;66746;51.328;12.332;2023-04-24T02:10:02;99119.41;;;11.59;83.30
77590;BME280;66746;51.328;12.332;2023-04-24T02:12:29;99120.56;;;11.55;83.98
77590;BME280;66746;51.328;12.332;2023-04-24T02:14:57;99127.06;;;11.53;83.55
77590;BME280;66746;51.328;12.332;2023-04-24T02:17:24;99127.22;;;11.50;83.75
77590;BME280;66746;51.328;12.332;2023-04-24T02:19:50;99128.22;;;11.49;83.85
77590;BME280;66746;51.328;12.332;2023-04-24T02:22:16;99129.25;;;11.46;83.78
77590;BME280;66746;51.328;12.332;2023-04-24T02:24:43;99121.13;;;11.46;83.88
77590;BME280;66746;51.328;12.332;2023-04-24T02:27:10;99127.72;;;11.42;84.70
77590;BME280;66746;51.328;12.332;2023-04-24T02:29:36;99111.22;;;11.45;84.35
77590;BME280;66746;51.328;12.332;2023-04-24T02:32:04;99112.31;;;11.43;83.52
77590;BME280;66746;51.328;12.332;2023-04-24T02:34:32;99110.63;;;11.40;83.85
77590;BME280;66746;51.328;12.332;2023-04-24T02:36:58;99098.91;;;11.40;84.17
77590;BME280;66746;51.328;12.332;2023-04-24T02:39:25;99108.91;;;11.39;83.70
77590;BME280;66746;51.328;12.332;2023-04-24T02:41:51;99107.34;;;11.35;84.24
77590;BME280;66746;51.328;12.332;2023-04-24T02:44:21;99103.06;;;11.31;83.57
77590;BME280;66746;51.328;12.332;2023-04-24T02:46:48;99101.41;;;11.29;83.87
77590;BME280;66746;51.328;12.332;2023-04-24T02:49:16;99102.56;;;11.25;83.96
77590;BME280;66746;51.328;12.332;2023-04-24T02:51:43;99097.03;;;11.26;83.61
77590;BME280;66746;51.328;12.332;2023-04-24T02:54:09;99098.06;;;11.24;83.48
77590;BME280;66746;51.328;12.332;2023-04-24T02:56:36;99098.00;;;11.25;83.45
77590;BME280;66746;51.328;12.332;2023-04-24T02:59:04;99089.44;;;11.17;83.23
77590;BME280;66746;51.328;12.332;2023-04-24T03:01:31;99093.03;;;11.18;83.63
77590;BME280;66746;51.328;12.332;2023-04-24T03:03:57;99096.91;;;11.14;83.80
77590;BME280;66746;51.328;12.332;2023-04-24T03:06:26;99095.41;;;11.08;84.27
77590;BME280;66746;51.328;12.332;2023-04-24T03:08:52;99092.78;;;11.07;84.28
77590;BME280;66746;51.328;12.332;2023-04-24T03:11:18;99102.97;;;11.03;83.89
77590;BME280;66746;51.328;12.332;2023-04-24T03:13:45;99106.72;;;11.01;83.60
77590;BME280;66746;51.328;12.332;2023-04-24T03:16:12;99105.66;;;11.03;83.30
77590;BME280;66746;51.328;12.332;2023-04-24T03:18:38;99100.44;;;11.00;83.23
77590;BME280;66746;51.328;12.332;2023-04-24T03:21:06;99091.31;;;11.01;83.38
77590;BME280;66746;51.328;12.332;2023-04-24T03:23:37;99096.16;;;10.96;83.20
77590;BME280;66746;51.328;12.332;2023-04-24T03:26:04;99097.31;;;10.92;83.67
77590;BME280;66746;51.328;12.332;2023-04-24T03:28:31;99090.13;;;10.91;84.00
77590;BME280;66746;51.328;12.332;2023-04-24T03:31:02;99089.25;;;10.91;83.27
77590;BME280;66746;51.328;12.332;2023-04-24T03:33:32;99075.19;;;10.84;82.70
77590;BME280;66746;51.328;12.332;2023-04-24T03:36:01;99083.31;;;10.84;83.12
77590;BME280;66746;51.328;12.332;2023-04-24T03:38:37;99084.09;;;10.86;83.21
77590;BME280;66746;51.328;12.332;2023-04-24T03:41:18;99088.56;;;10.87;83.71
77590;BME280;66746;51.328;12.332;2023-04-24T03:43:48;99092.25;;;10.86;83.27
77590;BME280;66746;51.328;12.332;2023-04-24T03:46:15;99092.25;;;10.86;83.28
77590;BME280;66746;51.328;12.332;2023-04-24T03:48:51;99097.47;;;10.89;82.22
77590;BME280;66746;51.328;12.332;2023-04-24T03:51:22;99103.59;;;10.93;82.89
77590;BME280;66746;51.328;12.332;2023-04-24T03:53:54;99099.25;;;10.90;82.98
77590;BME280;66746;51.328;12.332;2023-04-24T03:56:21;99109.19;;;10.90;82.50
77590;BME280;66746;51.328;12.332;2023-04-24T03:58:48;99100.53;;;10.83;83.78
77590;BME280;66746;51.328;12.332;2023-04-24T04:01:15;99092.34;;;10.85;83.75
77590;BME280;66746;51.328;12.332;2023-04-24T04:03:49;99105.72;;;10.88;83.71
77590;BME280;66746;51.328;12.332;2023-04-24T04:06:19;99104.72;;;10.89;82.21
77590;BME280;66746;51.328;12.332;2023-04-24T04:08:46;99100.47;;;10.85;83.03
77590;BME280;66746;51.328;12.332;2023-04-24T04:11:14;99102.31;;;10.84;82.24
77590;BME280;66746;51.328;12.332;2023-04-24T04:13:40;99103.88;;;10.88;82.88
77590;BME280;66746;51.328;12.332;2023-04-24T04:16:08;99113.75;;;10.89;82.89
77590;BME280;66746;51.328;12.332;2023-04-24T04:18:35;99102.00;;;10.89;83.45
77590;BME280;66746;51.328;12.332;2023-04-24T04:21:04;99105.25;;;10.95;82.36
77590;BME280;66746;51.328;12.332;2023-04-24T04:23:30;99102.38;;;10.98;82.44
77590;BME280;66746;51.328;12.332;2023-04-24T04:26:17;99106.19;;;11.10;81.65
77590;BME280;66746;51.328;12.332;2023-04-24T04:28:57;99108.72;;;11.13;80.73
77590;BME280;66746;51.328;12.332;2023-04-24T04:31:24;99096.19;;;11.10;81.48
77590;BME280;66746;51.328;12.332;2023-04-24T04:33:51;99104.16;;;11.13;81.31
77590;BME280;66746;51.328;12.332;2023-04-24T04:36:17;99109.50;;;11.15;81.18
77590;BME280;66746;51.328;12.332;2023-04-24T04:38:49;99110.53;;;11.12;81.59
77590;BME280;66746;51.328;12.332;2023-04-24T04:41:40;99105.91;;;11.14;82.25
77590;BME280;66746;51.328;12.332;2023-04-24T04:44:09;99105.72;;;11.17;81.32
77590;BME280;66746;51.328;12.332;2023-04-24T04:46:35;99113.09;;;11.15;82.09
77590;BME280;66746;51.328;12.332;2023-04-24T04:49:12;99116.38;;;11.20;81.30
77590;BME280;66746;51.328;12.332;2023-04-24T04:51:39;99129.78;;;11.23;81.57
77590;BME280;66746;51.328;12.332;2023-04-24T04:54:08;99118.94;;;11.23;82.05
77590;BME280;66746;51.328;12.332;2023-04-24T04:56:36;99121.53;;;11.25;81.91
77590;BME280;66746;51.328;12.332;2023-04-24T04:59:04;99114.88;;;11.30;82.41
77590;BME280;66746;51.328;12.332;2023-04-24T05:01:30;99111.28;;;11.30;81.92
77590;BME280;66746;51.328;12.332;2023-04-24T05:03:57;99115.75;;;11.31;81.73
77590;BME280;66746;51.328;12.332;2023-04-24T05:06:24;99121.09;;;11.32;82.34
77590;BME280;66746;51.328;12.332;2023-04-24T05:08:51;99129.84;;;11.37;81.46
77590;BME280;66746;51.328;12.332;2023-04-24T05:11:28;99124.09;;;11.42;81.65
77590;BME280;66746;51.328;12.332;2023-04-24T05:13:56;99120.75;;;11.52;81.04
77590;BME280;66746;51.328;12.332;2023-04-24T05:16:32;99125.09;;;11.71;80.13
77590;BME280;66746;51.328;12.332;2023-04-24T05:18:59;99119.75;;;12.80;76.11
77590;BME280;66746;51.328;12.332;2023-04-24T05:21:31;99123.19;;;12.96;74.33
77590;BME280;66746;51.328;12.332;2023-04-24T05:23:59;99118.25;;;12.89;74.66
77590;BME280;66746;51.328;12.332;2023-04-24T05:26:41;99128.34;;;12.60;76.51
77590;BME280;66746;51.328;12.332;2023-04-24T05:29:08;99126.06;;;12.40;76.26
77590;BME280;66746;51.328;12.332;2023-04-24T05:31:36;99142.75;;;12.34;77.15
77590;BME280;66746;51.328;12.332;2023-04-24T05:34:03;99148.41;;;12.31;77.69
77590;BME280;66746;51.328;12.332;2023-04-24T05:36:30;99146.25;;;12.36;77.52
77590;BME280;66746;51.328;12.332;2023-04-24T05:38:57;99140.69;;;12.52;76.63
77590;BME280;66746;51.328;12.332;2023-04-24T05:41:24;99136.75;;;12.43;76.26
77590;BME280;66746;51.328;12.332;2023-04-24T05:43:51;99136.81;;;12.56;77.06
77590;BME280;66746;51.328;12.332;2023-04-24T05:46:17;99127.97;;;12.66;76.28
77590;BME280;66746;51.328;12.332;2023-04-24T05:48:45;99140.22;;;13.00;75.04
77590;BME280;66746;51.328;12.332;2023-04-24T05:51:12;99146.13;;;13.06;75.09
77590;BME280;66746;51.328;12.332;2023-04-24T05:53:38;99137.47;;;13.00;75.06
77590;BME280;66746;51.328;12.332;2023-04-24T05:56:05;99131.91;;;13.15;74.10
77590;BME280;66746;51.328;12.332;2023-04-24T05:58:32;99132.94;;;13.40;72.96
77590;BME280;66746;51.328;12.332;2023-04-24T06:00:58;99133.00;;;13.65;72.32
77590;BME280;66746;51.328;12.332;2023-04-24T06:03:25;99143.28;;;13.74;71.81
77590;BME280;66746;51.328;12.332;2023-04-24T06:05:53;99147.72;;;13.75;72.13
77590;BME280;66746;51.328;12.332;2023-04-24T06:08:21;99148.25;;;13.55;72.01
77590;BME280;66746;51.328;12.332;2023-04-24T06:10:48;99133.09;;;13.63;71.04
77590;BME280;66746;51.328;12.332;2023-04-24T06:13:17;99137.25;;;13.56;71.95
77590;BME280;66746;51.328;12.332;2023-04-24T06:16:00;99135.59;;;13.54;72.02
77590;BME280;66746;51.328;12.332;2023-04-24T06:18:32;99151.34;;;13.23;73.23
77590;BME280;66746;51.328;12.332;2023-04-24T06:21:00;99142.03;;;13.13;73.89
77590;BME280;66746;51.328;12.332;2023-04-24T06:23:26;99140.66;;;12.80;74.87
77590;BME280;66746;51.328;12.332;2023-04-24T06:25:53;99144.06;;;12.69;75.15
77590;BME280;66746;51.328;12.332;2023-04-24T06:28:19;99146.13;;;12.52;75.92
77590;BME280;66746;51.328;12.332;2023-04-24T06:30:45;99139.41;;;12.57;76.30
77590;BME280;66746;51.328;12.332;2023-04-24T06:33:12;99146.63;;;12.58;75.96
77590;BME280;66746;51.328;12.332;2023-04-24T06:35:44;99143.53;;;12.50;76.70
77590;BME280;66746;51.328;12.332;2023-04-24T06:38:12;99153.25;;;12.40;77.00
77590;BME280;66746;51.328;12.332;2023-04-24T06:40:38;99151.69;;;12.36;76.81
77590;BME280;66746;51.328;12.332;2023-04-24T06:43:05;99155.56;;;12.32;76.49
77590;BME280;66746;51.328;12.332;2023-04-24T06:45:32;99144.69;;;12.32;77.26
77590;BME280;66746;51.328;12.332;2023-04-24T06:47:59;99142.56;;;12.37;76.50
77590;BME280;66746;51.328;12.332;2023-04-24T06:50:25;99143.81;;;12.45;76.32
77590;BME280;66746;51.328;12.332;2023-04-24T06:52:52;99148.34;;;12.59;75.91
77590;BME280;66746;51.328;12.332;2023-04-24T06:55:20;99140.56;;;12.67;76.02
77590;BME280;66746;51.328;12.332;2023-04-24T06:57:46;99153.00;;;12.71;75.84
77590;BME280;66746;51.328;12.332;2023-04-24T07:00:13;99152.63;;;12.63;74.78
77590;BME280;66746;51.328;12.332;2023-04-24T07:02:40;99137.84;;;12.67;75.12
77590;BME280;66746;51.328;12.332;2023-04-24T07:05:07;99143.88;;;12.72;75.50
77590;BME280;66746;51.328;12.332;2023-04-24T07:07:33;99152.81;;;12.74;75.51
77590;BME280;66746;51.328;12.332;2023-04-24T07:10:00;99144.94;;;12.70;75.26
77590;BME280;66746;51.328;12.332;2023-04-24T07:12:28;99136.13;;;12.66;75.32
77590;BME280;66746;51.328;12.332;2023-04-24T07:14:54;99162.16;;;12.70;75.27
77590;BME280;66746;51.328;12.332;2023-04-24T07:17:20;99150.09;;;12.74;75.16
77590;BME280;66746;51.328;12.332;2023-04-24T07:19:47;99155.69;;;12.85;74.88
77590;BME280;66746;51.328;12.332;2023-04-24T07:22:14;99149.22;;;13.00;74.98
77590;BME280;66746;51.328;12.332;2023-04-24T07:24:40;99153.72;;;13.28;73.82
77590;BME280;66746;51.328;12.332;2023-04-24T07:27:06;99146.50;;;13.54;73.07
77590;BME280;66746;51.328;12.332;2023-04-24T07:29:34;99145.75;;;13.77;71.47
77590;BME280;66746;51.328;12.332;2023-04-24T07:32:01;99146.53;;;14.04;71.82
77590;BME280;66746;51.328;12.332;2023-04-24T07:34:29;99147.97;;;13.97;70.18
77590;BME280;66746;51.328;12.332;2023-04-24T07:36:56;99149.69;;;13.98;69.66
77590;BME280;66746;51.328;12.332;2023-04-24T07:39:23;99149.59;;;13.87;70.43
77590;BME280;66746;51.328;12.332;2023-04-24T07:41:50;99155.34;;;13.82;69.78
77590;BME280;66746;51.328;12.332;2023-04-24T07:44:16;99155.16;;;13.98;71.07
77590;BME280;66746;51.328;12.332;2023-04-24T07:46:44;99152.56;;;13.84;70.32
77590;BME280;66746;51.328;12.332;2023-04-24T07:49:11;99152.34;;;13.99;69.18
77590;BME280;66746;51.328;12.332;2023-04-24T07:51:40;99144.69;;;14.04;68.12
77590;BME280;66746;51.328;12.332;2023-04-24T07:54:06;99148.41;;;14.41;67.89
77590;BME280;66746;51.328;12.332;2023-04-24T07:56:33;99150.63;;;14.72;65.47
77590;BME280;66746;51.328;12.332;2023-04-24T07:58:59;99139.84;;;15.31;65.47
77590;BME280;66746;51.328;12.332;2023-04-24T08:01:26;99140.63;;;15.56;63.34
77590;BME280;66746;51.328;12.332;2023-04-24T08:03:54;99138.81;;;15.68;62.34
77590;BME280;66746;51.328;12.332;2023-04-24T08:06:21;99147.16;;;15.43;62.61
77590;BME280;66746;51.328;12.332;2023-04-24T08:08:47;99135.22;;;15.78;63.57
77590;BME280;66746;51.328;12.332;2023-04-24T08:11:14;99146.53;;;15.85;61.25
77590;BME280;66746;51.328;12.332;2023-04-24T08:13:40;99137.13;;;15.89;59.15
77590;BME280;66746;51.328;12.332;2023-04-24T08:16:07;99148.34;;;16.08;59.51
77590;BME280;66746;51.328;12.332;2023-04-24T08:18:33;99136.69;;;16.17;59.20
77590;BME280;66746;51.328;12.332;2023-04-24T08:21:01;99138.41;;;16.18;58.07
77590;BME280;66746;51.328;12.332;2023-04-24T08:23:28;99148.88;;;16.24;59.80
77590;BME280;66746;51.328;12.332;2023-04-24T08:25:54;99157.97;;;15.90;60.60
77590;BME280;66746;51.328;12.332;2023-04-24T08:28:21;99151.16;;;15.50;58.13
77590;BME280;66746;51.328;12.332;2023-04-24T08:30:48;99152.41;;;15.57;58.86
77590;BME280;66746;51.328;12.332;2023-04-24T08:33:14;99150.50;;;15.81;60.26
77590;BME280;66746;51.328;12.332;2023-04-24T08:35:41;99150.63;;;15.45;59.55
77590;BME280;66746;51.328;12.332;2023-04-24T08:38:08;99149.72;;;15.21;60.18
77590;BME280;66746;51.328;12.332;2023-04-24T08:40:36;99156.25;;;14.94;61.27
77590;BME280;66746;51.328;12.332;2023-04-24T08:43:03;99153.34;;;14.85;61.44
77590;BME280;66746;51.328;12.332;2023-04-24T08:45:29;99175.06;;;14.86;60.29
77590;BME280;66746;51.328;12.332;2023-04-24T08:47:57;99169.19;;;15.16;59.17
77590;BME280;66746;51.328;12.332;2023-04-24T08:50:24;99173.84;;;15.74;56.75
77590;BME280;66746;51.328;12.332;2023-04-24T08:52:52;99166.59;;;15.97;57.58
77590;BME280;66746;51.328;12.332;2023-04-24T08:55:20;99163.44;;;15.90;57.73
77590;BME280;66746;51.328;12.332;2023-04-24T08:57:50;99172.38;;;15.81;57.44
77590;BME280;66746;51.328;12.332;2023-04-24T09:00:18;99175.06;;;16.05;58.41
77590;BME280;66746;51.328;12.332;2023-04-24T09:02:47;99167.13;;;16.24;55.41
77590;BME280;66746;51.328;12.332;2023-04-24T09:05:16;99173.91;;;15.96;55.78
77590;BME280;66746;51.328;12.332;2023-04-24T09:07:44;99167.09;;;15.67;56.63
77590;BME280;66746;51.328;12.332;2023-04-24T09:10:14;99179.06;;;15.30;58.08
77590;BME280;66746;51.328;12.332;2023-04-24T09:12:43;99174.91;;;15.00;59.11
77590;BME280;66746;51.328;12.332;2023-04-24T09:15:11;99178.44;;;14.90;61.76
77590;BME280;66746;51.328;12.332;2023-04-24T09:17:37;99190.50;;;14.75;60.36
77590;BME280;66746;51.328;12.332;2023-04-24T09:20:05;99190.72;;;14.59;60.76
77590;BME280;66746;51.328;12.332;2023-04-24T09:22:32;99200.56;;;14.49;62.66
77590;BME280;66746;51.328;12.332;2023-04-24T09:25:06;99202.19;;;14.39;62.57
77590;BME280;66746;51.328;12.332;2023-04-24T09:27:33;99204.03;;;14.26;61.00
77590;BME280;66746;51.328;12.332;2023-04-24T09:30:02;99203.81;;;14.16;62.06
77590;BME280;66746;51.328;12.332;2023-04-24T09:32:29;99199.00;;;14.20;61.06
77590;BME280;66746;51.328;12.332;2023-04-24T09:35:07;99207.19;;;14.20;61.64
77590;BME280;66746;51.328;12.332;2023-04-24T09:37:37;99211.69;;;14.21;61.16
77590;BME280;66746;51.328;12.332;2023-04-24T09:40:08;99207.63;;;14.14;61.64
77590;BME280;66746;51.328;12.332;2023-04-24T09:42:35;99212.53;;;14.09;58.46
77590;BME280;66746;51.328;12.332;2023-04-24T09:45:04;99204.03;;;14.13;58.74
77590;BME280;66746;51.328;12.332;2023-04-24T09:47:41;99204.03;;;14.26;59.08
77590;BME280;66746;51.328;12.332;2023-04-24T09:50:13;99201.22;;;14.40;57.37
77590;BME280;66746;51.328;12.332;2023-04-24T09:52:41;99197.00;;;14.97;56.89
77590;BME280;66746;51.328;12.332;2023-04-24T09:55:18;99206.69;;;15.38;55.75
77590;BME280;66746;51.328;12.332;2023-04-24T09:57:49;99194.44;;;15.43;54.30
77590;BME280;66746;51.328;12.332;2023-04-24T10:00:21;99201.38;;;15.60;55.44
77590;BME280;66746;51.328;12.332;2023-04-24T10:02:54;99198.50;;;15.96;53.55
77590;BME280;66746;51.328;12.332;2023-04-24T10:05:26;99194.25;;;15.81;52.45
77590;BME280;66746;51.328;12.332;2023-04-24T10:07:56;99192.53;;;15.80;53.37
77590;BME280;66746;51.328;12.332;2023-04-24T10:10:23;99195.97;;;15.82;53.63
77590;BME280;66746;51.328;12.332;2023-04-24T10:12:50;99183.00;;;16.08;52.29
77590;BME280;66746;51.328;12.332;2023-04-24T10:15:18;99197.28;;;16.00;51.70
77590;BME280;66746;51.328;12.332;2023-04-24T10:17:47;99206.28;;;15.78;51.42
77590;BME280;66746;51.328;12.332;2023-04-24T10:20:14;99191.22;;;15.73;51.66
77590;BME280;66746;51.328;12.332;2023-04-24T10:22:40;99190.09;;;16.10;48.86
77590;BME280;66746;51.328;12.332;2023-04-24T10:25:09;99198.44;;;16.09;50.00
77590;BME280;66746;51.328;12.332;2023-04-24T10:27:37;99201.31;;;16.18;48.68
77590;BME280;66746;51.328;12.332;2023-04-24T10:30:07;99198.91;;;16.70;48.10
77590;BME280;66746;51.328;12.332;2023-04-24T10:32:35;99199.66;;;16.72;48.38
77590;BME280;66746;51.328;12.332;2023-04-24T10:35:01;99207.34;;;16.45;49.39
77590;BME280;66746;51.328;12.332;2023-04-24T10:37:28;99213.78;;;16.33;48.91
77590;BME280;66746;51.328;12.332;2023-04-24T10:39:55;99207.13;;;16.70;47.11
77590;BME280;66746;51.328;12.332;2023-04-24T10:42:21;99206.88;;;16.96;47.93
77590;BME280;66746;51.328;12.332;2023-04-24T10:44:48;99207.06;;;17.37;44.10
77590;BME280;66746;51.328;12.332;2023-04-24T10:47:14;99205.84;;;17.52;44.41
77590;BME280;66746;51.328;12.332;2023-04-24T10:49:42;99210.00;;;17.67;44.44
77590;BME280;66746;51.328;12.332;2023-04-24T10:52:09;99213.13;;;17.94;43.99
77590;BME280;66746;51.328;12.332;2023-04-24T10:54:36;99213.34;;;18.02;43.87
77590;BME280;66746;51.328;12.332;2023-04-24T10:57:27;99215.50;;;18.19;42.34
77590;BME280;66746;51.328;12.332;2023-04-24T11:00:13;99215.25;;;18.22;42.56
77590;BME280;66746;51.328;12.332;2023-04-24T11:02:41;99229.88;;;17.37;43.05
77590;BME280;66746;51.328;12.332;2023-04-24T11:05:09;99227.56;;;16.89;44.71
77590;BME280;66746;51.328;12.332;2023-04-24T11:10:38;99226.03;;;17.83;42.67
77590;BME280;66746;51.328;12.332;2023-04-24T11:13:07;99229.38;;;17.86;41.98
77590;BME280;66746;51.328;12.332;2023-04-24T11:15:37;99232.22;;;17.53;41.38
77590;BME280;66746;51.328;12.332;2023-04-24T11:18:04;99235.53;;;16.69;42.07
77590;BME280;66746;51.328;12.332;2023-04-24T11:20:31;99239.00;;;17.16;43.36
77590;BME280;66746;51.328;12.332;2023-04-24T11:23:03;99232.41;;;17.83;40.87
77590;BME280;66746;51.328;12.332;2023-04-24T11:25:31;99232.56;;;18.02;38.84
77590;BME280;66746;51.328;12.332;2023-04-24T11:28:03;99253.97;;;18.08;39.09
77590;BME280;66746;51.328;12.332;2023-04-24T11:30:30;99243.59;;;17.26;40.32
77590;BME280;66746;51.328;12.332;2023-04-24T11:33:01;99241.72;;;17.49;40.46
77590;BME280;66746;51.328;12.332;2023-04-24T11:35:29;99240.63;;;17.72;40.45
77590;BME280;66746;51.328;12.332;2023-04-24T11:37:56;99226.38;;;17.57;41.40
77590;BME280;66746;51.328;12.332;2023-04-24T11:40:26;99248.41;;;17.45;39.49
77590;BME280;66746;51.328;12.332;2023-04-24T11:42:56;99251.44;;;16.87;41.05
77590;BME280;66746;51.328;12.332;2023-04-24T11:45:27;99256.28;;;16.61;41.93
77590;BME280;66746;51.328;12.332;2023-04-24T11:47:54;99257.16;;;16.61;42.37
77590;BME280;66746;51.328;12.332;2023-04-24T11:50:21;99249.22;;;16.80;40.43
77590;BME280;66746;51.328;12.332;2023-04-24T11:52:49;99259.06;;;16.37;41.15
77590;BME280;66746;51.328;12.332;2023-04-24T11:55:28;99267.63;;;17.12;41.74
77590;BME280;66746;51.328;12.332;2023-04-24T11:57:56;99254.19;;;17.09;40.02
77590;BME280;66746;51.328;12.332;2023-04-24T12:00:25;99253.94;;;16.78;39.53
77590;BME280;66746;51.328;12.332;2023-04-24T12:03:03;99257.41;;;17.14;39.16
77590;BME280;66746;51.328;12.332;2023-04-24T12:05:30;99250.47;;;16.99;39.39
77590;BME280;66746;51.328;12.332;2023-04-24T12:07:57;99254.44;;;16.72;39.38
77590;BME280;66746;51.328;12.332;2023-04-24T12:10:25;99258.13;;;16.49;39.89
77590;BME280;66746;51.328;12.332;2023-04-24T12:12:55;99255.41;;;16.49;41.97
77590;BME280;66746;51.328;12.332;2023-04-24T12:15:22;99250.97;;;16.93;42.44
77590;BME280;66746;51.328;12.332;2023-04-24T12:17:50;99244.09;;;17.85;40.17
77590;BME280;66746;51.328;12.332;2023-04-24T12:20:24;99261.28;;;17.55;39.18
77590;BME280;66746;51.328;12.332;2023-04-24T12:22:51;99259.16;;;17.26;39.42
77590;BME280;66746;51.328;12.332;2023-04-24T12:25:19;99252.91;;;17.35;40.22
77590;BME280;66746;51.328;12.332;2023-04-24T12:27:46;99258.44;;;17.13;39.72
77590;BME280;66746;51.328;12.332;2023-04-24T12:30:16;99252.47;;;16.86;40.53
77590;BME280;66746;51.328;12.332;2023-04-24T12:32:43;99247.94;;;16.51;39.70
77590;BME280;66746;51.328;12.332;2023-04-24T12:35:10;99249.13;;;16.47;41.72
77590;BME280;66746;51.328;12.332;2023-04-24T12:37:36;99262.31;;;16.42;40.97
77590;BME280;66746;51.328;12.332;2023-04-24T12:40:05;99258.28;;;16.24;40.47
77590;BME280;66746;51.328;12.332;2023-04-24T12:42:32;99259.16;;;16.59;41.59
77590;BME280;66746;51.328;12.332;2023-04-24T12:45:00;99264.88;;;16.78;41.04
77590;BME280;66746;51.328;12.332;2023-04-24T12:47:28;99251.38;;;16.42;40.88
77590;BME280;66746;51.328;12.332;2023-04-24T12:49:55;99262.97;;;16.11;41.68
77590;BME280;66746;51.328;12.332;2023-04-24T12:52:22;99250.53;;;16.07;40.97
77590;BME280;66746;51.328;12.332;2023-04-24T12:54:49;99248.72;;;16.19;42.77
77590;BME280;66746;51.328;12.332;2023-04-24T12:57:16;99249.13;;;16.47;40.07
77590;BME280;66746;51.328;12.332;2023-04-24T12:59:42;99237.00;;;16.62;41.26